sensor_id;sensor_type;location;lat;lon;timestamp;temperature;humidity
40622;DHT22;26324;52.040;11.528;2022-07-30T00:01:11;22.00;48.00
40622;DHT22;26324;52.040;11.528;2022-07-30T00:03:37;21.80;48.60
40622;DHT22;26324;52.040;11.528;2022-07-30T00:06:02;21.90;49.00
40622;DHT22;26324;52.040;11.528;2022-07-30T00:08:28;21.90;48.50
40622;DHT22;26324;52.040;11.528;2022-07-30T00:10:54;21.80;49.20
40622;DHT22;26324;52.040;11.528;2022-07-30T00:13:23;21.80;50.50
40622;DHT22;26324;52.040;11.528;2022-07-30T00:15:49;21.70;51.30
40622;DHT22;26324;52.040;11.528;2022-07-30T00:18:14;21.60;51.70
40622;DHT22;26324;52.040;11.528;2022-07-30T00:20:40;21.50;52.90
40622;DHT22;26324;52.040;11.528;2022-07-30T00:23:06;21.40;53.60
40622;DHT22;26324;52.040;11.528;2022-07-30T00:25:32;21.30;55.00
40622;DHT22;26324;52.040;11.528;2022-07-30T00:28:07;21.30;56.40
40622;DHT22;26324;52.040;11.528;2022-07-30T00:30:32;21.30;57.20
40622;DHT22;26324;52.040;11.528;2022-07-30T00:32:58;21.30;58.10
40622;DHT22;26324;52.040;11.528;2022-07-30T00:35:23;21.40;59.50
40622;DHT22;26324;52.040;11.528;2022-07-30T00:37:49;21.40;60.30
40622;DHT22;26324;52.040;11.528;2022-07-30T00:40:14;21.20;61.40
40622;DHT22;26324;52.040;11.528;2022-07-30T00:42:42;21.10;62.50
40622;DHT22;26324;52.040;11.528;2022-07-30T00:45:09;21.10;63.60
40622;DHT22;26324;52.040;11.528;2022-07-30T00:47:36;21.10;63.80
40622;DHT22;26324;52.040;11.528;2022-07-30T00:50:02;21.00;65.20
40622;DHT22;26324;52.040;11.528;2022-07-30T00:52:30;20.90;66.20
40622;DHT22;26324;52.040;11.528;2022-07-30T00:54:57;20.80;67.20
40622;DHT22;26324;52.040;11.528;2022-07-30T00:57:23;20.70;67.80
40622;DHT22;26324;52.040;11.528;2022-07-30T00:59:49;20.60;68.30
40622;DHT22;26324;52.040;11.528;2022-07-30T01:02:14;20.50;68.80
40622;DHT22;26324;52.040;11.528;2022-07-30T01:04:40;20.40;69.30
40622;DHT22;26324;52.040;11.528;2022-07-30T01:07:05;20.40;69.30
40622;DHT22;26324;52.040;11.528;2022-07-30T01:09:31;20.30;69.50
40622;DHT22;26324;52.040;11.528;2022-07-30T01:11:57;20.20;69.70
40622;DHT22;26324;52.040;11.528;2022-07-30T01:14:23;20.20;69.30
40622;DHT22;26324;52.040;11.528;2022-07-30T01:16:49;20.40;67.90
40622;DHT22;26324;52.040;11.528;2022-07-30T01:19:21;20.20;68.10
40622;DHT22;26324;52.040;11.528;2022-07-30T01:22:11;20.20;67.70
40622;DHT22;26324;52.040;11.528;2022-07-30T01:24:57;20.30;67.00
40622;DHT22;26324;52.040;11.528;2022-07-30T01:27:24;20.10;67.10
40622;DHT22;26324;52.040;11.528;2022-07-30T01:29:51;20.10;67.70
40622;DHT22;26324;52.040;11.528;2022-07-30T01:32:20;19.90;68.00
40622;DHT22;26324;52.040;11.528;2022-07-30T01:34:47;19.90;68.90
40622;DHT22;26324;52.040;11.528;2022-07-30T01:37:15;19.70;70.60
40622;DHT22;26324;52.040;11.528;2022-07-30T01:39:49;19.60;71.40
40622;DHT22;26324;52.040;11.528;2022-07-30T01:42:16;19.50;71.90
40622;DHT22;26324;52.040;11.528;2022-07-30T01:44:44;19.40;73.00
40622;DHT22;26324;52.040;11.528;2022-07-30T01:47:10;19.60;72.30
40622;DHT22;26324;52.040;11.528;2022-07-30T01:52:28;20.00;71.00
40622;DHT22;26324;52.040;11.528;2022-07-30T01:54:57;19.80;71.70
40622;DHT22;26324;52.040;11.528;2022-07-30T01:57:24;19.60;73.50
40622;DHT22;26324;52.040;11.528;2022-07-30T01:59:53;19.70;72.30
40622;DHT22;26324;52.040;11.528;2022-07-30T02:02:21;19.90;72.00
40622;DHT22;26324;52.040;11.528;2022-07-30T02:04:47;19.60;72.70
40622;DHT22;26324;52.040;11.528;2022-07-30T02:07:21;19.50;73.70
40622;DHT22;26324;52.040;11.528;2022-07-30T02:09:54;19.30;74.80
40622;DHT22;26324;52.040;11.528;2022-07-30T02:12:45;19.30;75.00
40622;DHT22;26324;52.040;11.528;2022-07-30T02:15:16;19.50;73.30
40622;DHT22;26324;52.040;11.528;2022-07-30T02:17:53;19.40;73.90
40622;DHT22;26324;52.040;11.528;2022-07-30T02:20:21;19.40;74.30
40622;DHT22;26324;52.040;11.528;2022-07-30T02:22:50;19.30;74.60
40622;DHT22;26324;52.040;11.528;2022-07-30T02:25:19;19.20;75.60
40622;DHT22;26324;52.040;11.528;2022-07-30T02:27:49;19.00;76.40
40622;DHT22;26324;52.040;11.528;2022-07-30T02:30:15;18.90;76.30
40622;DHT22;26324;52.040;11.528;2022-07-30T02:32:42;18.60;78.00
40622;DHT22;26324;52.040;11.528;2022-07-30T02:35:16;18.70;77.00
40622;DHT22;26324;52.040;11.528;2022-07-30T02:37:44;18.80;78.20
40622;DHT22;26324;52.040;11.528;2022-07-30T02:40:15;18.90;78.10
40622;DHT22;26324;52.040;11.528;2022-07-30T02:42:45;18.90;77.80
40622;DHT22;26324;52.040;11.528;2022-07-30T02:45:11;18.90;77.90
40622;DHT22;26324;52.040;11.528;2022-07-30T02:47:38;18.70;78.80
40622;DHT22;26324;52.040;11.528;2022-07-30T02:50:06;18.60;78.90
40622;DHT22;26324;52.040;11.528;2022-07-30T02:52:34;18.60;79.20
40622;DHT22;26324;52.040;11.528;2022-07-30T02:55:00;18.50;79.50
40622;DHT22;26324;52.040;11.528;2022-07-30T02:57:30;18.40;80.10
40622;DHT22;26324;52.040;11.528;2022-07-30T02:59:57;18.40;80.10
40622;DHT22;26324;52.040;11.528;2022-07-30T03:02:32;18.50;80.30
40622;DHT22;26324;52.040;11.528;2022-07-30T03:05:00;18.40;80.30
40622;DHT22;26324;52.040;11.528;2022-07-30T03:07:26;18.30;80.70
40622;DHT22;26324;52.040;11.528;2022-07-30T03:10:02;18.10;81.70
40622;DHT22;26324;52.040;11.528;2022-07-30T03:12:29;18.20;81.60
40622;DHT22;26324;52.040;11.528;2022-07-30T03:14:56;18.20;81.60
40622;DHT22;26324;52.040;11.528;2022-07-30T03:17:30;18.00;81.90
40622;DHT22;26324;52.040;11.528;2022-07-30T03:19:58;18.00;82.70
40622;DHT22;26324;52.040;11.528;2022-07-30T03:22:25;18.00;82.70
40622;DHT22;26324;52.040;11.528;2022-07-30T03:24:52;18.10;82.40
40622;DHT22;26324;52.040;11.528;2022-07-30T03:27:18;18.30;82.30
40622;DHT22;26324;52.040;11.528;2022-07-30T03:29:47;18.50;81.30
40622;DHT22;26324;52.040;11.528;2022-07-30T03:32:14;18.40;81.80
40622;DHT22;26324;52.040;11.528;2022-07-30T03:34:40;18.30;81.90
40622;DHT22;26324;52.040;11.528;2022-07-30T03:37:07;18.20;82.10
40622;DHT22;26324;52.040;11.528;2022-07-30T03:39:34;18.20;82.40
40622;DHT22;26324;52.040;11.528;2022-07-30T03:42:11;18.20;82.70
40622;DHT22;26324;52.040;11.528;2022-07-30T03:44:37;18.10;82.70
40622;DHT22;26324;52.040;11.528;2022-07-30T03:47:04;18.00;83.40
40622;DHT22;26324;52.040;11.528;2022-07-30T03:49:32;18.10;83.30
40622;DHT22;26324;52.040;11.528;2022-07-30T03:51:58;18.10;83.60
40622;DHT22;26324;52.040;11.528;2022-07-30T03:54:24;18.00;83.10
40622;DHT22;26324;52.040;11.528;2022-07-30T03:56:49;17.90;83.70
40622;DHT22;26324;52.040;11.528;2022-07-30T03:59:15;17.90;84.20
40622;DHT22;26324;52.040;11.528;2022-07-30T04:01:41;17.90;84.10
40622;DHT22;26324;52.040;11.528;2022-07-30T04:04:08;17.90;84.40
40622;DHT22;26324;52.040;11.528;2022-07-30T04:06:35;17.90;84.40
40622;DHT22;26324;52.040;11.528;2022-07-30T04:09:08;17.90;84.50
40622;DHT22;26324;52.040;11.528;2022-07-30T04:11:34;17.90;84.90
40622;DHT22;26324;52.040;11.528;2022-07-30T04:14:00;17.80;84.50
40622;DHT22;26324;52.040;11.528;2022-07-30T04:19:34;17.80;84.60
40622;DHT22;26324;52.040;11.528;2022-07-30T04:22:02;17.80;85.00
40622;DHT22;26324;52.040;11.528;2022-07-30T04:24:30;17.70;85.00
40622;DHT22;26324;52.040;11.528;2022-07-30T04:26:57;17.70;85.50
40622;DHT22;26324;52.040;11.528;2022-07-30T04:29:24;17.70;85.20
40622;DHT22;26324;52.040;11.528;2022-07-30T04:31:51;17.70;85.30
40622;DHT22;26324;52.040;11.528;2022-07-30T04:34:17;17.70;85.40
40622;DHT22;26324;52.040;11.528;2022-07-30T04:36:43;17.70;85.30
40622;DHT22;26324;52.040;11.528;2022-07-30T04:39:13;17.60;85.70
40622;DHT22;26324;52.040;11.528;2022-07-30T04:41:38;17.60;85.50
40622;DHT22;26324;52.040;11.528;2022-07-30T04:44:04;17.60;85.90
40622;DHT22;26324;52.040;11.528;2022-07-30T04:46:30;17.60;85.80
40622;DHT22;26324;52.040;11.528;2022-07-30T04:48:56;17.60;85.70
40622;DHT22;26324;52.040;11.528;2022-07-30T04:51:25;17.60;85.60
40622;DHT22;26324;52.040;11.528;2022-07-30T04:53:52;17.70;85.60
40622;DHT22;26324;52.040;11.528;2022-07-30T04:56:20;17.70;85.60
40622;DHT22;26324;52.040;11.528;2022-07-30T04:58:46;17.70;85.80
40622;DHT22;26324;52.040;11.528;2022-07-30T05:01:17;17.80;85.70
40622;DHT22;26324;52.040;11.528;2022-07-30T05:03:47;17.80;85.60
40622;DHT22;26324;52.040;11.528;2022-07-30T05:06:14;17.80;85.30
40622;DHT22;26324;52.040;11.528;2022-07-30T05:08:41;17.90;85.20
40622;DHT22;26324;52.040;11.528;2022-07-30T05:11:11;17.80;85.20
40622;DHT22;26324;52.040;11.528;2022-07-30T05:13:40;17.80;85.40
40622;DHT22;26324;52.040;11.528;2022-07-30T05:16:06;17.80;85.70
40622;DHT22;26324;52.040;11.528;2022-07-30T05:18:41;17.90;85.40
40622;DHT22;26324;52.040;11.528;2022-07-30T05:21:08;17.90;85.40
40622;DHT22;26324;52.040;11.528;2022-07-30T05:23:42;18.00;85.50
40622;DHT22;26324;52.040;11.528;2022-07-30T05:26:08;18.10;85.30
40622;DHT22;26324;52.040;11.528;2022-07-30T05:28:34;18.10;84.80
40622;DHT22;26324;52.040;11.528;2022-07-30T05:30:59;18.00;85.10
40622;DHT22;26324;52.040;11.528;2022-07-30T05:33:25;18.00;85.10
40622;DHT22;26324;52.040;11.528;2022-07-30T05:35:54;18.00;85.40
40622;DHT22;26324;52.040;11.528;2022-07-30T05:38:20;17.90;85.60
40622;DHT22;26324;52.040;11.528;2022-07-30T05:40:45;18.00;85.50
40622;DHT22;26324;52.040;11.528;2022-07-30T05:43:11;18.00;85.10
40622;DHT22;26324;52.040;11.528;2022-07-30T05:45:52;18.00;85.60
40622;DHT22;26324;52.040;11.528;2022-07-30T05:48:18;18.00;85.10
40622;DHT22;26324;52.040;11.528;2022-07-30T05:50:43;18.00;85.60
40622;DHT22;26324;52.040;11.528;2022-07-30T05:53:09;18.10;85.70
40622;DHT22;26324;52.040;11.528;2022-07-30T05:55:45;18.00;86.10
40622;DHT22;26324;52.040;11.528;2022-07-30T05:59:02;18.10;86.10
40622;DHT22;26324;52.040;11.528;2022-07-30T06:02:05;18.00;86.00
40622;DHT22;26324;52.040;11.528;2022-07-30T06:04:33;18.10;86.00
40622;DHT22;26324;52.040;11.528;2022-07-30T06:06:59;18.00;86.20
40622;DHT22;26324;52.040;11.528;2022-07-30T06:09:28;18.10;86.60
40622;DHT22;26324;52.040;11.528;2022-07-30T06:11:57;18.30;86.10
40622;DHT22;26324;52.040;11.528;2022-07-30T06:14:28;18.40;85.80
40622;DHT22;26324;52.040;11.528;2022-07-30T06:16:57;18.40;85.20
40622;DHT22;26324;52.040;11.528;2022-07-30T06:19:42;18.40;85.50
40622;DHT22;26324;52.040;11.528;2022-07-30T06:22:16;18.30;86.00
40622;DHT22;26324;52.040;11.528;2022-07-30T06:24:49;18.40;84.70
40622;DHT22;26324;52.040;11.528;2022-07-30T06:27:15;18.50;85.20
40622;DHT22;26324;52.040;11.528;2022-07-30T06:29:46;18.70;84.80
40622;DHT22;26324;52.040;11.528;2022-07-30T06:32:13;18.60;84.10
40622;DHT22;26324;52.040;11.528;2022-07-30T06:34:39;18.50;84.50
40622;DHT22;26324;52.040;11.528;2022-07-30T06:37:04;18.50;84.90
40622;DHT22;26324;52.040;11.528;2022-07-30T06:39:30;18.50;84.50
40622;DHT22;26324;52.040;11.528;2022-07-30T06:41:55;18.50;85.40
40622;DHT22;26324;52.040;11.528;2022-07-30T06:44:23;18.60;85.40
40622;DHT22;26324;52.040;11.528;2022-07-30T06:46:49;18.50;84.90
40622;DHT22;26324;52.040;11.528;2022-07-30T06:49:14;18.50;84.80
40622;DHT22;26324;52.040;11.528;2022-07-30T06:51:40;18.50;84.90
40622;DHT22;26324;52.040;11.528;2022-07-30T06:54:05;18.50;85.00
40622;DHT22;26324;52.040;11.528;2022-07-30T06:56:42;18.40;85.40
40622;DHT22;26324;52.040;11.528;2022-07-30T06:59:08;18.40;85.40
40622;DHT22;26324;52.040;11.528;2022-07-30T07:01:33;18.40;85.00
40622;DHT22;26324;52.040;11.528;2022-07-30T07:03:59;18.40;85.30
40622;DHT22;26324;52.040;11.528;2022-07-30T07:06:25;18.30;85.50
40622;DHT22;26324;52.040;11.528;2022-07-30T07:08:52;18.30;86.10
40622;DHT22;26324;52.040;11.528;2022-07-30T07:11:25;18.50;86.00
40622;DHT22;26324;52.040;11.528;2022-07-30T07:13:51;18.50;85.50
40622;DHT22;26324;52.040;11.528;2022-07-30T07:16:16;18.70;85.10
40622;DHT22;26324;52.040;11.528;2022-07-30T07:18:47;18.60;84.70
40622;DHT22;26324;52.040;11.528;2022-07-30T07:21:22;18.60;84.50
40622;DHT22;26324;52.040;11.528;2022-07-30T07:23:47;18.60;84.10
40622;DHT22;26324;52.040;11.528;2022-07-30T07:26:14;18.60;84.30
40622;DHT22;26324;52.040;11.528;2022-07-30T07:28:40;18.50;84.80
40622;DHT22;26324;52.040;11.528;2022-07-30T07:31:06;18.50;84.40
40622;DHT22;26324;52.040;11.528;2022-07-30T07:33:32;18.60;84.00
40622;DHT22;26324;52.040;11.528;2022-07-30T07:35:57;18.60;83.60
40622;DHT22;26324;52.040;11.528;2022-07-30T07:38:26;18.60;83.40
40622;DHT22;26324;52.040;11.528;2022-07-30T07:40:54;18.60;83.90
40622;DHT22;26324;52.040;11.528;2022-07-30T07:43:21;18.60;83.90
40622;DHT22;26324;52.040;11.528;2022-07-30T07:45:46;18.60;83.60
40622;DHT22;26324;52.040;11.528;2022-07-30T07:48:12;18.50;83.70
40622;DHT22;26324;52.040;11.528;2022-07-30T07:50:38;18.60;83.80
40622;DHT22;26324;52.040;11.528;2022-07-30T07:53:04;18.60;83.80
40622;DHT22;26324;52.040;11.528;2022-07-30T07:55:54;18.60;83.70
40622;DHT22;26324;52.040;11.528;2022-07-30T07:58:19;18.60;83.40
40622;DHT22;26324;52.040;11.528;2022-07-30T08:00:45;18.70;83.00
40622;DHT22;26324;52.040;11.528;2022-07-30T08:06:14;18.60;82.80
40622;DHT22;26324;52.040;11.528;2022-07-30T08:08:40;18.70;82.80
40622;DHT22;26324;52.040;11.528;2022-07-30T08:11:10;18.70;83.00
40622;DHT22;26324;52.040;11.528;2022-07-30T08:13:36;18.80;83.20
40622;DHT22;26324;52.040;11.528;2022-07-30T08:16:01;18.70;81.90
40622;DHT22;26324;52.040;11.528;2022-07-30T08:18:43;18.80;82.00
40622;DHT22;26324;52.040;11.528;2022-07-30T08:21:09;18.80;81.20
40622;DHT22;26324;52.040;11.528;2022-07-30T08:23:34;18.90;81.20
40622;DHT22;26324;52.040;11.528;2022-07-30T08:26:00;19.00;81.00
40622;DHT22;26324;52.040;11.528;2022-07-30T08:28:25;19.10;79.60
40622;DHT22;26324;52.040;11.528;2022-07-30T08:30:51;19.10;80.00
40622;DHT22;26324;52.040;11.528;2022-07-30T08:33:17;19.30;79.80
40622;DHT22;26324;52.040;11.528;2022-07-30T08:35:44;19.40;79.40
40622;DHT22;26324;52.040;11.528;2022-07-30T08:38:09;19.40;79.40
40622;DHT22;26324;52.040;11.528;2022-07-30T08:40:36;19.50;79.00
40622;DHT22;26324;52.040;11.528;2022-07-30T08:43:03;19.60;78.70
40622;DHT22;26324;52.040;11.528;2022-07-30T08:45:30;19.70;78.00
40622;DHT22;26324;52.040;11.528;2022-07-30T08:47:59;19.70;77.40
40622;DHT22;26324;52.040;11.528;2022-07-30T08:50:25;19.80;78.50
40622;DHT22;26324;52.040;11.528;2022-07-30T08:52:52;19.80;78.50
40622;DHT22;26324;52.040;11.528;2022-07-30T08:55:21;19.80;79.10
40622;DHT22;26324;52.040;11.528;2022-07-30T08:57:47;20.00;80.10
40622;DHT22;26324;52.040;11.528;2022-07-30T09:00:14;20.10;79.20
40622;DHT22;26324;52.040;11.528;2022-07-30T09:02:41;20.30;79.00
40622;DHT22;26324;52.040;11.528;2022-07-30T09:05:07;20.40;79.00
40622;DHT22;26324;52.040;11.528;2022-07-30T09:07:33;20.50;78.40
40622;DHT22;26324;52.040;11.528;2022-07-30T09:09:59;20.60;78.30
40622;DHT22;26324;52.040;11.528;2022-07-30T09:15:18;20.70;77.10
40622;DHT22;26324;52.040;11.528;2022-07-30T09:20:23;20.60;77.40
40622;DHT22;26324;52.040;11.528;2022-07-30T09:23:01;20.70;76.60
40622;DHT22;26324;52.040;11.528;2022-07-30T09:25:38;20.90;76.60
40622;DHT22;26324;52.040;11.528;2022-07-30T09:28:07;20.80;76.40
40622;DHT22;26324;52.040;11.528;2022-07-30T09:30:54;20.70;76.60
40622;DHT22;26324;52.040;11.528;2022-07-30T09:33:37;20.80;75.90
40622;DHT22;26324;52.040;11.528;2022-07-30T09:36:05;20.90;77.30
40622;DHT22;26324;52.040;11.528;2022-07-30T09:38:51;21.00;77.40
40622;DHT22;26324;52.040;11.528;2022-07-30T09:41:37;20.90;75.50
40622;DHT22;26324;52.040;11.528;2022-07-30T09:44:04;20.60;76.60
40622;DHT22;26324;52.040;11.528;2022-07-30T09:49:26;20.40;77.30
40622;DHT22;26324;52.040;11.528;2022-07-30T09:51:53;20.40;77.60
40622;DHT22;26324;52.040;11.528;2022-07-30T09:54:19;20.20;78.20
40622;DHT22;26324;52.040;11.528;2022-07-30T09:56:45;20.30;78.30
40622;DHT22;26324;52.040;11.528;2022-07-30T09:59:28;20.20;77.00
40622;DHT22;26324;52.040;11.528;2022-07-30T10:01:55;20.30;77.70
40622;DHT22;26324;52.040;11.528;2022-07-30T10:04:28;20.50;77.80
40622;DHT22;26324;52.040;11.528;2022-07-30T10:06:55;20.50;76.20
40622;DHT22;26324;52.040;11.528;2022-07-30T10:09:28;20.60;75.60
40622;DHT22;26324;52.040;11.528;2022-07-30T10:12:04;20.70;74.60
40622;DHT22;26324;52.040;11.528;2022-07-30T10:14:52;20.60;75.10
40622;DHT22;26324;52.040;11.528;2022-07-30T10:17:18;20.70;74.30
40622;DHT22;26324;52.040;11.528;2022-07-30T10:19:45;20.90;74.20
40622;DHT22;26324;52.040;11.528;2022-07-30T10:22:12;20.80;74.10
40622;DHT22;26324;52.040;11.528;2022-07-30T10:24:44;20.80;75.10
40622;DHT22;26324;52.040;11.528;2022-07-30T10:27:11;20.80;75.20
40622;DHT22;26324;52.040;11.528;2022-07-30T10:29:40;21.00;75.50
40622;DHT22;26324;52.040;11.528;2022-07-30T10:32:06;21.30;71.60
40622;DHT22;26324;52.040;11.528;2022-07-30T10:34:32;21.30;72.00
40622;DHT22;26324;52.040;11.528;2022-07-30T10:37:02;21.30;72.10
40622;DHT22;26324;52.040;11.528;2022-07-30T10:39:37;21.30;73.10
40622;DHT22;26324;52.040;11.528;2022-07-30T10:45:19;21.40;72.20
40622;DHT22;26324;52.040;11.528;2022-07-30T10:47:49;21.40;74.00
40622;DHT22;26324;52.040;11.528;2022-07-30T10:50:18;21.60;75.00
40622;DHT22;26324;52.040;11.528;2022-07-30T10:52:55;21.50;75.00
40622;DHT22;26324;52.040;11.528;2022-07-30T10:55:23;21.30;75.60
40622;DHT22;26324;52.040;11.528;2022-07-30T10:58:09;21.40;75.30
40622;DHT22;26324;52.040;11.528;2022-07-30T11:03:22;21.10;76.20
40622;DHT22;26324;52.040;11.528;2022-07-30T11:05:52;21.00;76.70
40622;DHT22;26324;52.040;11.528;2022-07-30T11:08:38;20.90;77.40
40622;DHT22;26324;52.040;11.528;2022-07-30T11:11:41;20.80;77.80
40622;DHT22;26324;52.040;11.528;2022-07-30T11:13:59;21.00;77.60
40622;DHT22;26324;52.040;11.528;2022-07-30T11:19:08;21.10;77.40
40622;DHT22;26324;52.040;11.528;2022-07-30T11:21:37;21.10;77.50
40622;DHT22;26324;52.040;11.528;2022-07-30T11:24:04;21.10;77.30
40622;DHT22;26324;52.040;11.528;2022-07-30T11:29:39;21.10;77.70
40622;DHT22;26324;52.040;11.528;2022-07-30T11:32:31;21.10;77.60
40622;DHT22;26324;52.040;11.528;2022-07-30T11:35:21;21.30;77.80
40622;DHT22;26324;52.040;11.528;2022-07-30T11:40:36;21.60;75.80
40622;DHT22;26324;52.040;11.528;2022-07-30T11:43:23;21.60;73.90
40622;DHT22;26324;52.040;11.528;2022-07-30T11:46:11;21.60;74.60
40622;DHT22;26324;52.040;11.528;2022-07-30T11:48:58;21.60;73.30
40622;DHT22;26324;52.040;11.528;2022-07-30T11:51:26;21.70;71.10
40622;DHT22;26324;52.040;11.528;2022-07-30T11:54:02;21.60;71.30
40622;DHT22;26324;52.040;11.528;2022-07-30T11:56:36;21.70;72.40
40622;DHT22;26324;52.040;11.528;2022-07-30T11:59:15;21.80;72.60
40622;DHT22;26324;52.040;11.528;2022-07-30T12:01:41;21.70;73.20
40622;DHT22;26324;52.040;11.528;2022-07-30T12:04:07;21.70;73.20
40622;DHT22;26324;52.040;11.528;2022-07-30T12:06:45;21.80;73.40
40622;DHT22;26324;52.040;11.528;2022-07-30T12:09:25;21.90;71.70
40622;DHT22;26324;52.040;11.528;2022-07-30T12:11:55;22.00;71.00
40622;DHT22;26324;52.040;11.528;2022-07-30T12:14:20;22.00;70.40
40622;DHT22;26324;52.040;11.528;2022-07-30T12:17:18;21.90;70.50
40622;DHT22;26324;52.040;11.528;2022-07-30T12:19:45;22.10;70.50
40622;DHT22;26324;52.040;11.528;2022-07-30T12:22:11;22.20;69.40
40622;DHT22;26324;52.040;11.528;2022-07-30T12:24:37;22.20;69.30
40622;DHT22;26324;52.040;11.528;2022-07-30T12:27:04;22.20;69.90
40622;DHT22;26324;52.040;11.528;2022-07-30T12:29:33;22.50;69.10
40622;DHT22;26324;52.040;11.528;2022-07-30T12:32:00;22.50;68.10
40622;DHT22;26324;52.040;11.528;2022-07-30T12:34:26;22.60;68.20
40622;DHT22;26324;52.040;11.528;2022-07-30T12:37:15;22.50;68.30
40622;DHT22;26324;52.040;11.528;2022-07-30T12:39:45;22.40;69.10
40622;DHT22;26324;52.040;11.528;2022-07-30T12:42:18;22.40;68.80
40622;DHT22;26324;52.040;11.528;2022-07-30T12:44:44;22.40;69.10
40622;DHT22;26324;52.040;11.528;2022-07-30T12:47:24;22.50;68.80
40622;DHT22;26324;52.040;11.528;2022-07-30T12:49:51;22.60;68.40
40622;DHT22;26324;52.040;11.528;2022-07-30T12:52:21;22.70;68.10
40622;DHT22;26324;52.040;11.528;2022-07-30T12:55:11;22.70;68.30
40622;DHT22;26324;52.040;11.528;2022-07-30T12:57:53;22.70;67.20
40622;DHT22;26324;52.040;11.528;2022-07-30T13:00:28;22.60;67.90
40622;DHT22;26324;52.040;11.528;2022-07-30T13:02:54;22.70;68.10
40622;DHT22;26324;52.040;11.528;2022-07-30T13:05:20;22.90;67.80
40622;DHT22;26324;52.040;11.528;2022-07-30T13:08:05;23.00;67.10
40622;DHT22;26324;52.040;11.528;2022-07-30T13:10:31;23.00;67.20
40622;DHT22;26324;52.040;11.528;2022-07-30T13:12:57;23.00;67.70
40622;DHT22;26324;52.040;11.528;2022-07-30T13:15:23;22.80;67.60
40622;DHT22;26324;52.040;11.528;2022-07-30T13:17:49;22.80;68.20
40622;DHT22;26324;52.040;11.528;2022-07-30T13:20:15;23.00;67.70
40622;DHT22;26324;52.040;11.528;2022-07-30T13:22:42;22.90;67.90
40622;DHT22;26324;52.040;11.528;2022-07-30T13:25:08;23.00;66.90
40622;DHT22;26324;52.040;11.528;2022-07-30T13:27:34;23.10;66.40
40622;DHT22;26324;52.040;11.528;2022-07-30T13:30:00;23.20;66.30
40622;DHT22;26324;52.040;11.528;2022-07-30T13:32:26;23.10;67.20
40622;DHT22;26324;52.040;11.528;2022-07-30T13:34:51;23.60;65.80
40622;DHT22;26324;52.040;11.528;2022-07-30T13:37:17;23.80;64.10
40622;DHT22;26324;52.040;11.528;2022-07-30T13:39:42;24.70;63.30
40622;DHT22;26324;52.040;11.528;2022-07-30T13:42:08;25.30;59.90
40622;DHT22;26324;52.040;11.528;2022-07-30T13:44:33;25.80;58.10
40622;DHT22;26324;52.040;11.528;2022-07-30T13:46:59;25.80;57.60
40622;DHT22;26324;52.040;11.528;2022-07-30T13:49:24;25.70;58.00
40622;DHT22;26324;52.040;11.528;2022-07-30T13:51:50;25.10;59.00
40622;DHT22;26324;52.040;11.528;2022-07-30T13:54:15;25.30;59.60
40622;DHT22;26324;52.040;11.528;2022-07-30T13:56:41;25.10;58.10
40622;DHT22;26324;52.040;11.528;2022-07-30T13:59:07;25.60;57.20
40622;DHT22;26324;52.040;11.528;2022-07-30T14:01:32;26.40;55.10
40622;DHT22;26324;52.040;11.528;2022-07-30T14:04:00;27.30;54.70
40622;DHT22;26324;52.040;11.528;2022-07-30T14:06:25;28.70;49.40
40622;DHT22;26324;52.040;11.528;2022-07-30T14:08:51;29.70;46.60
40622;DHT22;26324;52.040;11.528;2022-07-30T14:11:17;30.60;44.70
40622;DHT22;26324;52.040;11.528;2022-07-30T14:13:42;31.40;42.30
40622;DHT22;26324;52.040;11.528;2022-07-30T14:16:08;32.00;41.60
40622;DHT22;26324;52.040;11.528;2022-07-30T14:18:35;31.60;41.10
40622;DHT22;26324;52.040;11.528;2022-07-30T14:21:00;31.30;41.50
40622;DHT22;26324;52.040;11.528;2022-07-30T14:23:27;31.10;42.20
40622;DHT22;26324;52.040;11.528;2022-07-30T14:25:55;30.30;43.40
40622;DHT22;26324;52.040;11.528;2022-07-30T14:28:20;30.00;44.70
40622;DHT22;26324;52.040;11.528;2022-07-30T14:30:46;29.80;44.90
40622;DHT22;26324;52.040;11.528;2022-07-30T14:33:11;29.50;45.90
40622;DHT22;26324;52.040;11.528;2022-07-30T14:35:37;29.00;46.40
40622;DHT22;26324;52.040;11.528;2022-07-30T14:38:03;28.50;47.60
40622;DHT22;26324;52.040;11.528;2022-07-30T14:40:28;28.20;48.40
40622;DHT22;26324;52.040;11.528;2022-07-30T14:42:54;27.80;49.10
40622;DHT22;26324;52.040;11.528;2022-07-30T14:45:20;27.50;50.00
40622;DHT22;26324;52.040;11.528;2022-07-30T14:47:45;27.30;50.10
40622;DHT22;26324;52.040;11.528;2022-07-30T14:50:11;26.90;51.20
40622;DHT22;26324;52.040;11.528;2022-07-30T14:52:37;26.60;52.10
40622;DHT22;26324;52.040;11.528;2022-07-30T14:55:07;26.30;52.90
40622;DHT22;26324;52.040;11.528;2022-07-30T14:57:33;27.70;49.80
40622;DHT22;26324;52.040;11.528;2022-07-30T14:59:59;29.60;44.50
40622;DHT22;26324;52.040;11.528;2022-07-30T15:02:28;30.70;41.60
40622;DHT22;26324;52.040;11.528;2022-07-30T15:04:53;32.10;39.50
40622;DHT22;26324;52.040;11.528;2022-07-30T15:07:19;32.90;36.40
40622;DHT22;26324;52.040;11.528;2022-07-30T15:09:44;32.70;36.40
40622;DHT22;26324;52.040;11.528;2022-07-30T15:12:10;31.40;38.70
40622;DHT22;26324;52.040;11.528;2022-07-30T15:14:37;29.50;42.80
40622;DHT22;26324;52.040;11.528;2022-07-30T15:17:03;28.00;46.00
40622;DHT22;26324;52.040;11.528;2022-07-30T15:19:28;27.20;45.20
40622;DHT22;26324;52.040;11.528;2022-07-30T15:21:55;26.70;47.00
40622;DHT22;26324;52.040;11.528;2022-07-30T15:24:21;26.20;48.30
40622;DHT22;26324;52.040;11.528;2022-07-30T15:26:47;25.90;50.10
40622;DHT22;26324;52.040;11.528;2022-07-30T15:29:12;25.70;49.50
40622;DHT22;26324;52.040;11.528;2022-07-30T15:31:38;25.60;48.70
40622;DHT22;26324;52.040;11.528;2022-07-30T15:34:03;25.30;48.70
40622;DHT22;26324;52.040;11.528;2022-07-30T15:36:29;25.10;50.50
40622;DHT22;26324;52.040;11.528;2022-07-30T15:38:55;25.10;51.40
40622;DHT22;26324;52.040;11.528;2022-07-30T15:41:20;25.30;50.40
40622;DHT22;26324;52.040;11.528;2022-07-30T15:43:46;25.20;51.30
40622;DHT22;26324;52.040;11.528;2022-07-30T15:46:11;25.40;50.50
40622;DHT22;26324;52.040;11.528;2022-07-30T15:48:37;25.30;50.40
40622;DHT22;26324;52.040;11.528;2022-07-30T15:51:03;25.50;48.00
40622;DHT22;26324;52.040;11.528;2022-07-30T15:53:30;25.40;48.90
40622;DHT22;26324;52.040;11.528;2022-07-30T15:55:57;25.50;48.90
40622;DHT22;26324;52.040;11.528;2022-07-30T15:58:23;25.60;48.00